createdAt,value
2018-04-13T00:01:46.989Z,10.63
2018-04-13T00:04:14.512Z,9.60
2018-04-13T00:06:42.834Z,8.73
2018-04-13T00:09:10.353Z,8.97
2018-04-13T00:11:38.665Z,8.90
2018-04-13T00:14:06.197Z,9.03
2018-04-13T00:16:33.743Z,8.33
2018-04-13T00:19:02.031Z,8.17
2018-04-13T00:21:29.608Z,8.53
2018-04-13T00:23:57.136Z,8.60
2018-04-13T00:26:25.457Z,8.70
2018-04-13T00:28:52.979Z,8.73
2018-04-13T00:31:21.295Z,8.73
2018-04-13T00:33:48.820Z,8.67
2018-04-13T00:36:17.139Z,8.23
2018-04-13T00:38:44.666Z,8.40
2018-04-13T00:41:12.223Z,9.27
2018-04-13T00:43:40.503Z,8.40
2018-04-13T00:46:08.820Z,9.10
2018-04-13T00:48:36.341Z,8.97
2018-04-13T00:51:04.652Z,8.50
2018-04-13T00:53:32.172Z,8.87
2018-04-13T00:56:00.462Z,8.53
2018-04-13T00:58:28.021Z,8.40
2018-04-13T01:00:55.540Z,8.80
2018-04-13T01:03:23.097Z,8.57
2018-04-13T01:05:50.625Z,7.83
2018-04-13T01:08:18.177Z,9.20
2018-04-13T01:10:45.700Z,8.67
2018-04-13T01:13:14.018Z,8.70
2018-04-13T01:15:41.535Z,9.17
2018-04-13T01:18:09.857Z,9.67
2018-04-13T01:20:37.388Z,9.33
2018-04-13T01:23:05.700Z,9.30
2018-04-13T01:25:33.228Z,9.03
2018-04-13T01:28:01.543Z,9.83
2018-04-13T01:30:29.080Z,9.07
2018-04-13T01:32:56.636Z,9.27
2018-04-13T01:35:24.158Z,9.17
2018-04-13T01:37:51.717Z,9.63
2018-04-13T01:40:19.432Z,8.50
2018-04-13T01:42:46.993Z,10.20
2018-04-13T01:45:14.528Z,9.67
2018-04-13T01:47:42.844Z,9.27
2018-04-13T01:50:10.364Z,11.00
2018-04-13T01:52:38.680Z,10.00
2018-04-13T01:55:06.220Z,10.53
2018-04-13T01:57:33.789Z,10.67
2018-04-13T02:00:01.320Z,11.33
2018-04-13T02:02:29.620Z,11.57
2018-04-13T02:04:57.227Z,11.07
2018-04-13T02:07:24.716Z,13.13
2018-04-13T02:09:53.032Z,13.27
2018-04-13T02:12:20.559Z,13.33
2018-04-13T02:14:48.871Z,12.60
2018-04-13T02:17:16.398Z,13.07
2018-04-13T02:19:44.729Z,13.43
2018-04-13T02:22:12.260Z,12.00
2018-04-13T02:24:39.833Z,12.63
2018-04-13T02:27:07.362Z,13.70
2018-04-13T02:29:34.930Z,13.07
2018-04-13T02:32:02.463Z,12.17
2018-04-13T02:34:30.873Z,11.67
2018-04-13T02:36:58.336Z,12.87
2018-04-13T02:39:25.890Z,11.77
2018-04-13T02:41:53.418Z,11.00
2018-04-13T02:44:21.745Z,11.67
2018-04-13T02:46:49.268Z,11.37
2018-04-13T02:49:17.591Z,12.00
2018-04-13T02:51:45.120Z,10.63
2018-04-13T02:54:12.669Z,11.40
2018-04-13T02:56:40.965Z,11.77
2018-04-13T02:59:08.528Z,11.83
2018-04-13T03:01:36.062Z,12.20
2018-04-13T03:04:04.395Z,11.57
2018-04-13T03:06:31.920Z,11.07
2018-04-13T03:08:59.448Z,11.33
2018-04-13T03:11:27.008Z,11.70
2018-04-13T03:13:54.544Z,11.47
2018-04-13T03:16:22.100Z,11.63
2018-04-13T03:18:50.415Z,12.67
2018-04-13T03:21:17.954Z,12.10
2018-04-13T03:23:45.493Z,11.93
2018-04-13T03:26:13.052Z,11.50
2018-04-13T03:28:40.576Z,11.93
2018-04-13T03:31:08.124Z,12.13
2018-04-13T03:33:36.417Z,12.30
2018-04-13T03:36:03.971Z,13.48
2018-04-13T03:38:32.259Z,11.67
2018-04-13T03:40:59.808Z,11.93
2018-04-13T03:43:27.337Z,12.00
2018-04-13T03:45:54.886Z,12.10
2018-04-13T03:48:22.411Z,12.63
2018-04-13T03:50:49.959Z,11.80
2018-04-13T03:53:17.548Z,11.73
2018-04-13T03:55:45.104Z,12.10
2018-04-13T03:58:12.632Z,12.47
2018-04-13T04:00:40.184Z,12.67
2018-04-13T04:03:08.482Z,12.63
2018-04-13T04:05:36.032Z,12.40
2018-04-13T04:08:03.565Z,11.80
2018-04-13T04:10:31.123Z,12.33
2018-04-13T04:12:58.652Z,12.20
2018-04-13T04:15:26.180Z,12.10
2018-04-13T04:17:53.737Z,12.53
2018-04-13T04:20:33.120Z,12.60
2018-04-13T04:23:12.595Z,12.80
2018-04-13T04:28:45.458Z,13.17
2018-04-13T04:31:12.985Z,13.33
2018-04-13T04:33:40.542Z,12.80
2018-04-13T04:36:08.068Z,12.37
2018-04-13T04:38:35.626Z,12.17
2018-04-13T04:41:03.158Z,13.27
2018-04-13T04:43:30.715Z,14.43
2018-04-13T04:45:58.256Z,13.60
2018-04-13T04:48:25.812Z,14.80
2018-04-13T04:50:53.340Z,13.83
2018-04-13T04:53:21.662Z,14.07
2018-04-13T04:55:49.192Z,14.33
2018-04-13T04:58:17.513Z,14.07
2018-04-13T05:00:45.696Z,13.67
2018-04-13T05:03:13.252Z,14.23
2018-04-13T05:05:40.800Z,14.00
2018-04-13T05:08:08.349Z,13.10
2018-04-13T05:10:35.884Z,12.97
2018-04-13T05:13:04.204Z,13.23
2018-04-13T05:15:31.729Z,11.77
2018-04-13T05:17:59.281Z,10.67
2018-04-13T05:20:26.824Z,10.80
2018-04-13T05:22:54.401Z,11.30
2018-04-13T05:25:22.692Z,9.93
2018-04-13T05:27:50.248Z,12.07
2018-04-13T05:30:17.817Z,11.43
2018-04-13T05:32:45.344Z,12.73
2018-04-13T05:35:12.911Z,11.23
2018-04-13T05:37:41.208Z,12.00
2018-04-13T05:40:08.761Z,12.07
2018-04-13T05:42:37.056Z,12.00
2018-04-13T05:45:04.626Z,10.93
2018-04-13T05:47:32.160Z,11.50
2018-04-13T05:50:00.477Z,12.30
2018-04-13T05:52:28.012Z,12.40
2018-04-13T05:54:55.563Z,12.63
2018-04-13T05:57:23.857Z,12.83
2018-04-13T05:59:51.414Z,12.93
2018-04-13T06:02:18.936Z,13.10
2018-04-13T06:04:46.489Z,14.07
2018-04-13T06:07:14.020Z,14.00
2018-04-13T06:09:41.577Z,14.77
2018-04-13T06:12:09.106Z,13.40
2018-04-13T06:14:36.651Z,13.83
2018-04-13T06:17:04.944Z,13.13
2018-04-13T06:19:32.503Z,14.07
2018-04-13T06:22:00.033Z,13.73
2018-04-13T06:24:27.632Z,13.17
2018-04-13T06:26:55.896Z,12.77
2018-04-13T06:29:23.425Z,11.93
2018-04-13T06:31:50.979Z,11.37
2018-04-13T06:34:18.508Z,11.50
2018-04-13T06:36:46.062Z,10.63
2018-04-13T06:39:13.596Z,10.97
2018-04-13T06:41:41.156Z,10.00
2018-04-13T06:44:08.682Z,10.10
2018-04-13T06:46:36.231Z,11.30
2018-04-13T06:49:03.765Z,11.00
2018-04-13T06:51:31.324Z,11.47
2018-04-13T06:53:58.856Z,11.23
2018-04-13T06:56:26.416Z,12.17
2018-04-13T06:58:53.967Z,12.10
2018-04-13T07:01:22.287Z,13.00
2018-04-13T07:03:49.808Z,12.67
2018-04-13T07:06:17.363Z,13.23
2018-04-13T07:08:45.652Z,13.00
2018-04-13T07:11:13.208Z,13.30
2018-04-13T07:13:41.533Z,14.10
2018-04-13T07:16:09.072Z,14.17
2018-04-13T07:18:36.589Z,13.57
2018-04-13T07:21:04.930Z,13.87
2018-04-13T07:23:32.452Z,15.50
2018-04-13T07:26:00.009Z,14.17
2018-04-13T07:28:27.532Z,15.03
2018-04-13T07:30:55.882Z,16.47
2018-04-13T07:33:23.408Z,18.57
2018-04-13T07:35:50.945Z,16.87
2018-04-13T07:38:19.269Z,18.58
2018-04-13T07:40:46.800Z,17.70
2018-04-13T07:43:15.128Z,18.43
2018-04-13T07:45:42.720Z,17.23
2018-04-13T07:48:11.013Z,17.30
2018-04-13T07:50:39.304Z,16.43
2018-04-13T07:53:06.868Z,16.90
2018-04-13T07:55:34.397Z,17.73
2018-04-13T07:58:03.124Z,17.43
2018-04-13T08:00:30.270Z,16.70
2018-04-13T08:02:58.022Z,18.07
2018-04-13T08:05:25.396Z,17.00
2018-04-13T08:07:52.968Z,17.20
2018-04-13T08:10:20.507Z,18.70
2018-04-13T08:12:48.080Z,17.03
2018-04-13T08:15:15.605Z,17.40
2018-04-13T08:17:43.932Z,17.20
2018-04-13T08:20:11.468Z,17.93
2018-04-13T08:22:39.041Z,18.07
2018-04-13T08:25:06.603Z,18.30
2018-04-13T08:27:34.161Z,18.33
2018-04-13T08:30:01.696Z,18.43
2018-04-13T08:32:29.264Z,18.10
2018-04-13T08:34:56.797Z,18.50
2018-04-13T08:37:25.115Z,19.37
2018-04-13T08:39:52.679Z,18.53
2018-04-13T08:42:20.218Z,18.47
2018-04-13T08:44:47.787Z,19.53
2018-04-13T08:47:15.315Z,19.17
2018-04-13T08:49:42.901Z,19.03
2018-04-13T08:52:11.206Z,19.67
2018-04-13T08:54:38.792Z,19.87
2018-04-13T08:57:06.331Z,19.50
2018-04-13T08:59:33.893Z,19.40
2018-04-13T09:02:01.433Z,20.13
2018-04-13T09:04:29.006Z,19.80
2018-04-13T09:06:56.568Z,21.40
2018-04-13T09:09:24.136Z,20.13
2018-04-13T09:11:51.665Z,19.93
2018-04-13T09:14:19.236Z,20.63
2018-04-13T09:16:46.793Z,20.50
2018-04-13T09:19:14.356Z,21.97
2018-04-13T09:21:41.885Z,21.50
2018-04-13T09:24:09.465Z,20.40
2018-04-13T09:26:37.001Z,21.90
2018-04-13T09:29:04.558Z,21.87
2018-04-13T09:31:32.108Z,21.37
2018-04-13T09:33:59.701Z,23.20
2018-04-13T09:36:27.265Z,21.80
2018-04-13T09:38:54.809Z,23.20
2018-04-13T09:41:22.413Z,25.30
2018-04-13T09:43:49.941Z,24.97
2018-04-13T09:46:18.276Z,26.17
2018-04-13T09:48:45.820Z,25.87
2018-04-13T09:51:13.380Z,27.43
2018-04-13T09:53:40.912Z,27.03
2018-04-13T09:56:08.472Z,27.47
2018-04-13T09:58:36.004Z,26.37
2018-04-13T10:01:03.560Z,26.27
2018-04-13T10:03:36.764Z,27.97
2018-04-13T10:06:05.085Z,27.97
2018-04-13T10:08:32.612Z,26.90
2018-04-13T10:11:00.935Z,27.73
2018-04-13T10:13:28.464Z,27.07
2018-04-13T10:15:56.020Z,28.17
2018-04-13T10:18:23.553Z,27.47
2018-04-13T10:20:51.107Z,27.90
2018-04-13T10:23:18.640Z,29.70
2018-04-13T10:25:46.192Z,29.90
2018-04-13T10:28:13.729Z,29.03
2018-04-13T10:30:41.280Z,30.23
2018-04-13T10:33:08.809Z,29.40
2018-04-13T10:35:36.368Z,30.00
2018-04-13T10:38:03.897Z,30.80
2018-04-13T10:40:31.472Z,30.87
2018-04-13T10:42:59.027Z,31.17
2018-04-13T10:45:26.563Z,31.73
2018-04-13T10:47:54.124Z,31.07
2018-04-13T10:50:21.655Z,32.03
2018-04-13T10:52:49.969Z,31.77
2018-04-13T10:55:17.492Z,31.47
2018-04-13T10:57:45.816Z,31.93
2018-04-13T11:00:13.363Z,31.20
2018-04-13T11:02:40.920Z,32.00
2018-04-13T11:05:08.453Z,32.23
2018-04-13T11:07:36.763Z,33.30
2018-04-13T11:10:04.301Z,33.00
2018-04-13T11:12:31.852Z,32.43
2018-04-13T11:14:59.383Z,33.77
2018-04-13T11:17:26.932Z,32.93
2018-04-13T11:19:54.457Z,32.47
2018-04-13T11:22:22.008Z,32.40
2018-04-13T11:24:49.568Z,33.07
2018-04-13T11:27:17.112Z,32.07
2018-04-13T11:29:44.643Z,32.67
2018-04-13T11:32:12.192Z,32.80
2018-04-13T11:34:39.735Z,32.90
2018-04-13T11:37:07.292Z,33.27
2018-04-13T11:39:34.820Z,31.97
2018-04-13T11:42:02.399Z,33.03
2018-04-13T11:44:29.932Z,32.47
2018-04-13T11:46:57.563Z,32.93
2018-04-13T11:49:25.155Z,31.73
2018-04-13T11:51:53.446Z,33.07
2018-04-13T11:54:21.013Z,32.53
2018-04-13T11:56:48.542Z,32.00
2018-04-13T11:59:16.868Z,31.37
2018-04-13T12:01:44.396Z,31.23
2018-04-13T12:04:11.946Z,31.73
2018-04-13T12:06:40.244Z,32.93
2018-04-13T12:09:07.796Z,31.97
2018-04-13T12:11:35.326Z,29.40
2018-04-13T12:14:02.884Z,30.20
2018-04-13T12:16:30.418Z,29.43
2018-04-13T12:18:58.013Z,32.23
2018-04-13T12:21:26.317Z,30.53
2018-04-13T12:23:53.870Z,31.20
2018-04-13T12:26:21.404Z,32.20
2018-04-13T12:28:48.972Z,31.83
2018-04-13T12:31:17.273Z,32.10
2018-04-13T12:33:44.832Z,32.63
2018-04-13T12:36:12.365Z,32.67
2018-04-13T12:38:39.924Z,31.93
2018-04-13T12:41:07.456Z,31.90
2018-04-13T12:43:35.024Z,30.33
2018-04-13T12:46:02.556Z,29.23
2018-04-13T12:48:30.080Z,28.73
2018-04-13T12:50:58.406Z,28.10
2018-04-13T12:53:26.003Z,27.17
2018-04-13T12:55:53.509Z,29.43
2018-04-13T12:58:21.032Z,28.60
2018-04-13T13:00:49.358Z,26.00
2018-04-13T13:03:16.888Z,27.03
2018-04-13T13:05:44.442Z,27.57
2018-04-13T13:08:12.732Z,25.37
2018-04-13T13:10:40.289Z,25.07
2018-04-13T13:13:07.823Z,25.70
2018-04-13T13:15:36.165Z,24.10
2018-04-13T13:18:03.749Z,26.20
2018-04-13T13:20:31.339Z,26.30
2018-04-13T13:22:58.876Z,23.57
2018-04-13T13:25:26.428Z,23.50
2018-04-13T13:27:53.959Z,24.23
2018-04-13T13:30:21.552Z,24.20
2018-04-13T13:32:49.925Z,23.37
2018-04-13T13:35:17.485Z,24.00
2018-04-13T13:37:45.059Z,25.07
2018-04-13T13:40:12.564Z,23.80
2018-04-13T13:42:40.153Z,23.23
2018-04-13T13:45:07.683Z,23.87
2018-04-13T13:47:35.244Z,23.73
2018-04-13T13:50:02.779Z,23.93
2018-04-13T13:52:31.101Z,22.67
2018-04-13T13:54:58.636Z,23.37
2018-04-13T13:57:26.191Z,23.30
2018-04-13T13:59:53.720Z,23.70
2018-04-13T14:02:21.275Z,23.13
2018-04-13T14:04:49.591Z,23.87
2018-04-13T14:07:17.144Z,24.17
2018-04-13T14:09:44.673Z,25.27
2018-04-13T14:12:12.225Z,24.60
2018-04-13T14:14:39.750Z,25.73
2018-04-13T14:17:07.305Z,25.27
2018-04-13T14:19:34.832Z,25.73
2018-04-13T14:22:03.156Z,25.00
2018-04-13T14:24:30.681Z,23.77
2018-04-13T14:26:58.996Z,24.00
2018-04-13T14:29:26.532Z,26.20
2018-04-13T14:31:54.083Z,23.67
2018-04-13T14:34:21.614Z,23.83
2018-04-13T14:36:49.164Z,22.70
2018-04-13T14:39:16.717Z,21.73
2018-04-13T14:41:44.241Z,21.03
2018-04-13T14:44:11.801Z,21.43
2018-04-13T14:46:39.333Z,22.30
2018-04-13T14:49:07.650Z,21.60
2018-04-13T14:51:35.188Z,21.90
2018-04-13T14:54:02.748Z,22.93
2018-04-13T14:56:30.272Z,22.87
2018-04-13T14:58:58.641Z,24.00
2018-04-13T15:01:26.169Z,25.30
2018-04-13T15:03:53.720Z,24.80
2018-04-13T15:06:21.253Z,25.30
2018-04-13T15:08:49.571Z,25.40
2018-04-13T15:11:17.107Z,25.23
2018-04-13T15:13:44.712Z,23.07
2018-04-13T15:16:12.216Z,23.17
2018-04-13T15:18:39.764Z,22.10
2018-04-13T15:21:08.056Z,21.23
2018-04-13T15:23:35.609Z,20.50
2018-04-13T15:26:03.902Z,20.40
2018-04-13T15:28:32.664Z,20.70
2018-04-13T15:31:00.267Z,20.03
2018-04-13T15:33:27.840Z,18.57
2018-04-13T15:35:55.364Z,18.73
2018-04-13T15:38:22.920Z,17.53
2018-04-13T15:40:51.216Z,17.60
2018-04-13T15:43:18.747Z,18.70
2018-04-13T15:45:47.068Z,19.47
2018-04-13T15:48:14.595Z,19.23
2018-04-13T15:50:42.916Z,19.90
2018-04-13T15:53:10.440Z,20.40
2018-04-13T15:55:37.999Z,21.67
2018-04-13T15:58:05.532Z,20.23
2018-04-13T16:00:33.087Z,20.63
2018-04-13T16:03:00.618Z,21.40
2018-04-13T16:05:28.172Z,19.70
2018-04-13T16:07:55.739Z,19.00
2018-04-13T16:10:23.287Z,18.83
2018-04-13T16:12:50.822Z,16.93
2018-04-13T16:15:18.371Z,15.90
2018-04-13T16:17:46.674Z,14.23
2018-04-13T16:20:14.237Z,15.07
2018-04-13T16:22:41.771Z,14.10
2018-04-13T16:25:10.117Z,14.77
2018-04-13T16:27:37.644Z,14.03
2018-04-13T16:30:05.201Z,13.17
2018-04-13T16:32:32.736Z,12.53
2018-04-13T16:35:00.297Z,11.43
2018-04-13T16:37:27.827Z,10.27
2018-04-13T16:39:55.384Z,10.50
2018-04-13T16:42:22.908Z,9.67
2018-04-13T16:44:50.436Z,9.97
2018-04-13T16:47:17.984Z,9.47
2018-04-13T16:49:46.274Z,8.97
2018-04-13T16:52:13.829Z,9.27
2018-04-13T16:54:42.117Z,9.33
2018-04-13T16:57:09.670Z,9.93
2018-04-13T16:59:37.967Z,9.87
2018-04-13T17:02:05.522Z,10.73
2018-04-13T17:04:33.044Z,10.83
2018-04-13T17:07:01.373Z,11.03
2018-04-13T17:09:28.901Z,10.17
2018-04-13T17:11:57.224Z,9.70
2018-04-13T17:14:24.752Z,9.63
2018-04-13T17:16:52.300Z,9.63
2018-04-13T17:19:20.588Z,9.60
2018-04-13T17:21:48.136Z,9.57
2018-04-13T17:24:16.428Z,11.30
2018-04-13T17:26:44.004Z,10.57
2018-04-13T17:29:11.563Z,10.60
2018-04-13T17:31:39.110Z,10.03
2018-04-13T17:34:07.014Z,9.60
2018-04-13T17:36:34.601Z,9.67
2018-04-13T17:39:02.128Z,11.03
2018-04-13T17:41:29.672Z,12.33
2018-04-13T17:43:57.200Z,13.63
2018-04-13T17:46:25.488Z,10.63
2018-04-13T17:48:53.032Z,12.63
2018-04-13T17:51:21.333Z,12.48
2018-04-13T17:53:48.892Z,13.30
2018-04-13T17:56:16.427Z,11.00
2018-04-13T17:58:43.980Z,11.33
2018-04-13T18:01:11.512Z,11.27
2018-04-13T18:03:39.069Z,12.03
2018-04-13T18:06:06.591Z,11.40
2018-04-13T18:08:34.140Z,12.27
2018-04-13T18:11:02.436Z,13.00
2018-04-13T18:13:29.992Z,12.80
2018-04-13T18:15:57.525Z,12.87
2018-04-13T18:18:25.849Z,12.07
2018-04-13T18:20:53.384Z,13.30
2018-04-13T18:23:20.932Z,13.27
2018-04-13T18:25:49.218Z,11.47
2018-04-13T18:28:17.535Z,12.03
2018-04-13T18:30:45.065Z,11.33
2018-04-13T18:33:12.623Z,11.13
2018-04-13T18:35:40.156Z,11.10
2018-04-13T18:38:08.485Z,10.53
2018-04-13T18:40:36.016Z,10.30
2018-04-13T18:43:03.573Z,9.07
2018-04-13T18:45:31.901Z,9.37
2018-04-13T18:47:59.444Z,9.13
2018-04-13T18:50:26.979Z,9.20
2018-04-13T18:52:54.508Z,9.83
2018-04-13T18:55:22.066Z,9.40
2018-04-13T18:57:49.594Z,9.80
2018-04-13T19:00:17.153Z,21.00
2018-04-13T19:02:44.685Z,9.73
2018-04-13T19:05:12.440Z,10.27
2018-04-13T19:07:39.982Z,10.53
2018-04-13T19:10:08.316Z,10.23
2018-04-13T19:12:35.849Z,9.67
2018-04-13T19:15:03.404Z,9.93
2018-04-13T19:17:30.935Z,10.60
2018-04-13T19:19:58.495Z,11.37
2018-04-13T19:22:26.805Z,11.87
2018-04-13T19:24:54.365Z,12.10
2018-04-13T19:27:21.904Z,11.60
2018-04-13T19:29:50.228Z,11.57
2018-04-13T19:32:17.773Z,12.77
2018-04-13T19:34:45.329Z,13.40
2018-04-13T19:37:12.858Z,15.17
2018-04-13T19:39:41.180Z,17.93
2018-04-13T19:42:08.709Z,16.77
2018-04-13T19:44:37.032Z,17.00
2018-04-13T19:47:05.336Z,18.00
2018-04-13T19:49:32.900Z,20.10
2018-04-13T19:52:00.427Z,35.17
2018-04-13T19:54:27.976Z,17.40
2018-04-13T19:56:55.532Z,19.10
2018-04-13T19:59:23.061Z,18.60
2018-04-13T20:01:51.384Z,18.30
2018-04-13T20:04:18.916Z,19.27
2018-04-13T20:06:46.473Z,20.77
2018-04-13T20:09:14.063Z,19.80
2018-04-13T20:11:42.348Z,21.47
2018-04-13T20:14:09.878Z,22.90
2018-04-13T20:16:37.432Z,25.53
2018-04-13T20:19:04.964Z,26.70
2018-04-13T20:21:33.289Z,38.60
2018-04-13T20:24:00.843Z,28.23
2018-04-13T20:26:28.392Z,29.57
2018-04-13T20:28:55.917Z,33.23
2018-04-13T20:31:23.470Z,28.70
2018-04-13T20:33:50.996Z,30.43
2018-04-13T20:36:18.545Z,29.97
2018-04-13T20:38:46.072Z,30.10
2018-04-13T20:41:14.400Z,32.37
2018-04-13T20:43:41.936Z,32.47
2018-04-13T20:46:09.490Z,31.00
2018-04-13T20:48:37.032Z,34.47
2018-04-13T20:51:05.348Z,36.37
2018-04-13T20:53:32.872Z,38.33
2018-04-13T20:56:01.192Z,42.63
2018-04-13T20:58:28.716Z,38.17
2018-04-13T21:00:56.249Z,39.13
2018-04-13T21:03:23.804Z,38.77
2018-04-13T21:05:51.336Z,37.47
2018-04-13T21:08:19.662Z,39.20
2018-04-13T21:10:47.966Z,37.47
2018-04-13T21:13:15.539Z,38.63
2018-04-13T21:15:43.077Z,38.17
2018-04-13T21:18:10.642Z,40.40
2018-04-13T21:20:38.188Z,41.33
2018-04-13T21:23:06.512Z,43.20
2018-04-13T21:25:34.045Z,42.77
2018-04-13T21:28:01.601Z,43.60
2018-04-13T21:30:29.189Z,42.97
2018-04-13T21:32:56.707Z,44.73
2018-04-13T21:35:25.045Z,45.23
2018-04-13T21:37:52.600Z,47.03
2018-04-13T21:40:20.131Z,45.80
2018-04-13T21:42:47.695Z,46.87
2018-04-13T21:45:15.257Z,47.30
2018-04-13T21:47:42.813Z,47.53
2018-04-13T21:50:10.344Z,47.20
2018-04-13T21:52:38.660Z,47.33
2018-04-13T21:55:06.189Z,46.07
2018-04-13T21:57:34.509Z,46.10
2018-04-13T22:00:02.041Z,46.23
2018-04-13T22:02:29.597Z,49.00
2018-04-13T22:04:57.125Z,46.37
2018-04-13T22:07:25.467Z,44.10
2018-04-13T22:09:52.997Z,44.97
2018-04-13T22:12:32.492Z,43.10
2018-04-13T22:15:00.021Z,43.33
2018-04-13T22:17:27.560Z,42.03
2018-04-13T22:19:55.113Z,44.37
2018-04-13T22:22:22.641Z,44.33
2018-04-13T22:24:50.200Z,43.10
2018-04-13T22:27:17.737Z,43.23
2018-04-13T22:29:45.292Z,42.43
2018-04-13T22:32:12.823Z,43.17
2018-04-13T22:34:40.396Z,39.37
2018-04-13T22:37:07.928Z,34.03
2018-04-13T22:39:35.481Z,34.20
2018-04-13T22:42:03.034Z,33.60
2018-04-13T22:44:31.353Z,31.60
2018-04-13T22:46:58.880Z,31.33
2018-04-13T22:49:27.200Z,31.17
2018-04-13T22:51:54.729Z,30.33
2018-04-13T22:54:22.288Z,28.57
2018-04-13T22:56:49.822Z,29.67
2018-04-13T22:59:18.163Z,29.03
2018-04-13T23:01:45.696Z,29.73
2018-04-13T23:04:13.229Z,28.43
2018-04-13T23:06:41.549Z,28.30
2018-04-13T23:09:09.076Z,27.70
2018-04-13T23:11:37.397Z,29.27
2018-04-13T23:14:05.688Z,27.03
2018-04-13T23:16:33.240Z,27.57
2018-04-13T23:19:00.772Z,27.77
2018-04-13T23:21:28.344Z,28.57
2018-04-13T23:23:55.872Z,27.33
2018-04-13T23:26:24.326Z,28.03
2018-04-13T23:28:52.216Z,26.47
2018-04-13T23:31:20.771Z,26.23
2018-04-13T23:33:48.877Z,28.30
2018-04-13T23:36:16.901Z,28.10
2018-04-13T23:38:44.764Z,28.53
2018-04-13T23:41:12.714Z,27.00
2018-04-13T23:43:40.741Z,27.00
2018-04-13T23:46:09.443Z,28.77
2018-04-13T23:48:37.740Z,27.80
2018-04-13T23:51:05.303Z,33.88
2018-04-13T23:53:32.832Z,29.07
2018-04-13T23:56:01.156Z,28.83
2018-04-13T23:58:28.729Z,27.97
